Time;durP1;ratioP1;P1;durP2;ratioP2;P2;SDS_P1;SDS_P2;PMS_P1;PMS_P2;Temp;Humidity;BMP_temperature;BMP_pressure;BME280_temperature;BME280_humidity;BME280_pressure;Samples;Min_cycle;Max_cycle;Signal;HPM_P1;HPM_P2
2023/05/27 00:00:45;;;;;;;15.07;4.30;;;13.30;1.00;;;;;;4938107;29;20539;-86
2023/05/27 00:03:11;;;;;;;12.73;4.77;;;13.20;1.00;;;;;;4938019;29;20777;-83
2023/05/27 00:05:36;;;;;;;16.53;4.57;;;13.20;1.00;;;;;;4939653;29;20775;-87
2023/05/27 00:08:02;;;;;;;14.23;4.83;;;13.20;1.00;;;;;;4941550;29;20170;-87
2023/05/27 00:10:28;;;;;;;15.17;5.10;;;13.20;1.00;;;;;;4939780;29;20192;-85
2023/05/27 00:12:54;;;;;;;18.67;4.83;;;13.10;1.00;;;;;;4942009;29;20169;-83
2023/05/27 00:15:21;;;;;;;13.47;5.20;;;13.20;1.00;;;;;;4939671;29;20690;-85
2023/05/27 00:17:47;;;;;;;12.67;4.60;;;13.20;1.00;;;;;;4944251;29;20189;-81
2023/05/27 00:20:12;;;;;;;12.60;4.60;;;13.20;1.00;;;;;;4945492;29;20182;-86
2023/05/27 00:22:40;;;;;;;18.30;5.17;;;13.30;1.00;;;;;;4943611;29;20192;-85
2023/05/27 00:25:06;;;;;;;13.80;4.73;;;13.00;1.00;;;;;;4939085;29;20170;-87
2023/05/27 00:27:32;;;;;;;13.80;4.40;;;12.90;1.00;;;;;;4938083;29;20574;-86
2023/05/27 00:29:58;;;;;;;13.90;4.30;;;12.90;1.00;;;;;;4938686;29;20196;-85
2023/05/27 00:32:24;;;;;;;18.20;5.20;;;12.90;1.00;;;;;;4936359;29;20204;-87
2023/05/27 00:34:50;;;;;;;12.20;3.90;;;12.90;1.00;;;;;;4937729;29;20291;-85
2023/05/27 00:37:16;;;;;;;12.47;4.13;;;12.90;1.00;;;;;;4952855;28;20184;-80
2023/05/27 00:39:41;;;;;;;14.20;4.40;;;12.90;1.00;;;;;;4959457;28;20184;-85
2023/05/27 00:42:09;;;;;;;15.93;5.07;;;12.70;1.00;;;;;;4956132;29;20237;-84
2023/05/27 00:44:35;;;;;;;11.70;4.90;;;12.70;1.00;;;;;;4945122;29;20280;-87
2023/05/27 00:47:05;;;;;;;15.60;4.63;;;12.70;1.00;;;;;;4937530;29;20279;-85
2023/05/27 00:49:30;;;;;;;14.77;4.70;;;12.60;1.00;;;;;;4937497;29;20227;-84
2023/05/27 00:51:56;;;;;;;12.70;4.70;;;12.60;1.00;;;;;;4935879;29;20177;-85
2023/05/27 00:54:22;;;;;;;14.87;4.90;;;12.60;1.00;;;;;;4935917;29;20216;-85
2023/05/27 00:56:48;;;;;;;15.93;5.33;;;12.50;1.00;;;;;;4935439;29;20177;-84
2023/05/27 00:59:15;;;;;;;14.33;5.30;;;12.50;1.00;;;;;;4956319;28;20179;-81
2023/05/27 01:01:43;;;;;;;13.93;4.43;;;12.40;1.00;;;;;;4960061;28;20173;-84
2023/05/27 01:04:12;;;;;;;16.43;5.13;;;12.50;1.00;;;;;;4953937;29;20187;-86
2023/05/27 01:07:14;;;;;;;15.23;4.50;;;12.40;1.00;;;;;;4948613;29;20173;-84
2023/05/27 01:10:21;;;;;;;13.17;4.50;;;12.40;1.00;;;;;;4937788;29;20177;-86
2023/05/27 01:13:03;;;;;;;16.30;5.23;;;12.30;1.00;;;;;;4939856;29;20196;-86
2023/05/27 01:15:31;;;;;;;13.57;5.23;;;12.20;1.00;;;;;;4941576;29;20697;-87
2023/05/27 01:17:57;;;;;;;16.07;4.70;;;12.20;1.00;;;;;;4943158;29;20174;-82
2023/05/27 01:20:24;;;;;;;15.00;5.87;;;12.20;1.00;;;;;;4940276;29;20181;-84
2023/05/27 01:22:52;;;;;;;19.87;6.07;;;12.10;1.00;;;;;;4944363;29;20165;-86
2023/05/27 01:25:19;;;;;;;13.23;5.13;;;12.20;1.00;;;;;;4949207;29;20192;-84
2023/05/27 01:27:45;;;;;;;16.43;5.10;;;12.10;1.00;;;;;;4951956;29;20162;-88
2023/05/27 01:30:12;;;;;;;14.53;5.53;;;12.00;1.00;;;;;;4941317;29;20173;-87
2023/05/27 01:32:52;;;;;;;14.83;5.50;;;12.00;1.00;;;;;;4923788;29;20184;-84
2023/05/27 01:35:24;;;;;;;15.90;5.13;;;12.10;1.00;;;;;;4941164;29;20240;-86
2023/05/27 01:37:52;;;;;;;12.03;5.13;;;12.00;1.00;;;;;;4940743;29;20240;-86
2023/05/27 01:40:19;;;;;;;19.17;5.20;;;12.10;1.00;;;;;;4940839;29;20263;-85
2023/05/27 01:42:46;;;;;;;16.33;5.63;;;12.00;1.00;;;;;;4950944;29;20193;-86
2023/05/27 01:45:12;;;;;;;14.00;5.37;;;12.10;1.00;;;;;;4955803;29;20209;-85
2023/05/27 01:47:38;;;;;;;14.70;5.10;;;12.00;1.00;;;;;;4946252;29;20273;-86
2023/05/27 01:50:07;;;;;;;13.13;4.90;;;11.90;1.00;;;;;;4945227;29;20307;-87
2023/05/27 01:52:32;;;;;;;16.23;4.80;;;11.90;1.00;;;;;;4942016;29;20657;-85
2023/05/27 01:54:58;;;;;;;13.57;4.50;;;12.00;1.00;;;;;;4941481;29;20209;-86
2023/05/27 01:57:25;;;;;;;15.80;5.40;;;11.90;1.00;;;;;;4949151;28;20172;-84
2023/05/27 01:59:51;;;;;;;16.17;4.20;;;11.80;1.00;;;;;;4961751;28;20166;-86
2023/05/27 02:02:16;;;;;;;17.50;5.10;;;11.70;1.00;;;;;;4952431;28;20236;-85
2023/05/27 02:04:43;;;;;;;16.40;5.53;;;11.70;1.00;;;;;;4947564;29;20675;-85
2023/05/27 02:07:11;;;;;;;17.40;5.30;;;11.70;1.00;;;;;;4938912;29;20541;-87
2023/05/27 02:09:37;;;;;;;20.77;5.20;;;11.70;1.00;;;;;;4939312;29;20193;-87
2023/05/27 02:12:03;;;;;;;18.70;5.50;;;11.60;1.00;;;;;;4939798;29;20256;-86
2023/05/27 02:14:29;;;;;;;16.77;5.17;;;11.50;1.00;;;;;;4939016;29;20740;-86
2023/05/27 02:16:54;;;;;;;12.70;4.97;;;11.50;1.00;;;;;;4937694;29;20188;-85
2023/05/27 02:19:20;;;;;;;15.47;5.17;;;11.50;1.00;;;;;;4922294;29;20204;-82
2023/05/27 02:21:46;;;;;;;13.17;5.30;;;11.50;1.00;;;;;;4936296;29;20308;-86
2023/05/27 02:24:12;;;;;;;13.47;4.73;;;11.40;1.00;;;;;;4939611;29;20178;-84
2023/05/27 02:26:38;;;;;;;16.97;5.60;;;11.30;1.00;;;;;;4938705;29;20329;-84
2023/05/27 02:29:03;;;;;;;15.03;5.53;;;11.30;5.10;;;;;;4939662;29;20585;-86
2023/05/27 02:31:29;;;;;;;12.53;4.80;;;11.30;6.60;;;;;;4939391;29;20187;-87
2023/05/27 02:33:55;;;;;;;15.87;6.33;;;11.20;4.90;;;;;;4936850;29;20546;-85
2023/05/27 02:36:23;;;;;;;15.60;5.17;;;11.30;6.90;;;;;;4939148;29;20232;-85
2023/05/27 02:38:51;;;;;;;14.87;5.77;;;11.20;7.00;;;;;;4937930;29;20183;-86
2023/05/27 02:41:16;;;;;;;15.67;5.93;;;11.20;6.60;;;;;;4937632;29;20239;-85
2023/05/27 02:43:42;;;;;;;13.33;5.53;;;11.10;9.50;;;;;;4938999;29;20633;-84
2023/05/27 02:46:08;;;;;;;18.37;5.67;;;11.10;11.10;;;;;;4938547;29;20225;-86
2023/05/27 02:48:34;;;;;;;14.80;5.80;;;11.20;11.10;;;;;;4938942;29;20181;-85
2023/05/27 02:50:59;;;;;;;18.10;5.60;;;11.10;10.70;;;;;;4937283;29;20180;-86
2023/05/27 02:53:25;;;;;;;17.70;5.83;;;11.10;8.60;;;;;;4939389;29;20649;-85
2023/05/27 02:55:51;;;;;;;13.33;5.37;;;11.10;14.00;;;;;;4939340;29;20227;-84
2023/05/27 02:58:17;;;;;;;14.63;5.57;;;11.00;16.00;;;;;;4938937;29;20172;-85
2023/05/27 03:00:43;;;;;;;17.50;5.70;;;10.80;14.60;;;;;;4938426;29;20280;-83
2023/05/27 03:03:08;;;;;;;17.10;5.70;;;11.00;14.90;;;;;;4937746;29;20181;-86
2023/05/27 03:05:35;;;;;;;11.10;5.03;;;11.10;15.70;;;;;;4939889;29;20177;-86
2023/05/27 03:08:02;;;;;;;17.60;5.77;;;10.90;16.50;;;;;;4938949;29;20656;-83
2023/05/27 03:10:28;;;;;;;17.90;5.27;;;10.90;15.50;;;;;;4938447;29;20604;-86
2023/05/27 03:12:57;;;;;;;13.90;5.40;;;11.00;18.00;;;;;;4939074;29;20173;-87
2023/05/27 03:15:23;;;;;;;20.43;6.00;;;10.90;16.50;;;;;;4939305;29;20305;-83
2023/05/27 03:17:49;;;;;;;13.50;5.60;;;11.00;18.40;;;;;;4938470;29;20251;-84
2023/05/27 03:20:16;;;;;;;19.43;5.53;;;11.00;18.70;;;;;;4939372;29;20618;-85
2023/05/27 03:22:42;;;;;;;16.33;5.40;;;11.00;17.80;;;;;;4938354;29;20177;-86
2023/05/27 03:25:09;;;;;;;15.33;5.40;;;10.90;16.10;;;;;;4937543;29;20656;-85
2023/05/27 03:27:35;;;;;;;14.97;5.53;;;10.80;19.90;;;;;;4938245;29;20630;-86
2023/05/27 03:30:02;;;;;;;15.37;5.63;;;10.80;19.30;;;;;;4937867;29;20169;-86
2023/05/27 03:32:28;;;;;;;14.50;5.80;;;10.70;21.90;;;;;;4938505;29;20256;-86
2023/05/27 03:34:53;;;;;;;18.27;6.53;;;10.60;23.20;;;;;;4937919;29;20292;-84
2023/05/27 03:37:19;;;;;;;14.40;5.77;;;10.60;26.50;;;;;;4937501;29;20204;-85
2023/05/27 03:39:45;;;;;;;15.27;5.90;;;10.70;27.50;;;;;;4938208;29;20189;-86
2023/05/27 03:42:12;;;;;;;12.80;5.37;;;10.60;27.20;;;;;;4942717;28;20153;-82
2023/05/27 03:44:37;;;;;;;13.73;5.23;;;10.60;30.00;;;;;;4960429;28;20248;-84
2023/05/27 03:47:04;;;;;;;12.37;6.07;;;10.50;31.90;;;;;;4956143;28;20208;-84
2023/05/27 03:49:30;;;;;;;15.80;6.20;;;10.50;33.50;;;;;;4959174;28;20196;-85
2023/05/27 03:51:59;;;;;;;17.63;5.70;;;10.40;33.00;;;;;;4957740;28;20164;-80
2023/05/27 03:54:32;;;;;;;20.60;6.63;;;10.40;33.40;;;;;;4959321;28;20211;-82
2023/05/27 03:56:59;;;;;;;16.73;5.67;;;10.40;35.00;;;;;;4960766;28;20197;-83
2023/05/27 03:59:31;;;;;;;17.27;6.17;;;10.40;35.40;;;;;;4957871;28;20233;-85
2023/05/27 04:02:00;;;;;;;14.07;5.63;;;10.40;37.20;;;;;;4953301;29;20170;-85
2023/05/27 04:07:48;;;;;;;18.13;6.17;;;10.40;35.60;;;;;;4960459;28;20269;-84
2023/05/27 04:10:13;;;;;;;19.90;6.03;;;10.40;40.00;;;;;;4957187;29;20222;-83
2023/05/27 04:12:42;;;;;;;16.70;5.73;;;10.30;38.90;;;;;;4956631;29;20617;-86
2023/05/27 04:15:26;;;;;;;11.57;4.77;;;10.30;40.60;;;;;;4941874;29;20294;-86
2023/05/27 04:17:53;;;;;;;13.93;5.83;;;10.30;38.90;;;;;;4940069;29;20220;-85
2023/05/27 04:20:20;;;;;;;12.47;4.97;;;10.30;38.70;;;;;;4938372;29;20248;-86
2023/05/27 04:22:45;;;;;;;19.47;6.57;;;10.30;39.30;;;;;;4941208;29;20173;-87
2023/05/27 04:25:11;;;;;;;15.17;6.43;;;10.40;38.40;;;;;;4942168;29;20165;-85
2023/05/27 04:27:37;;;;;;;13.00;6.20;;;10.40;36.20;;;;;;4938513;28;20279;-86
2023/05/27 04:30:05;;;;;;;17.73;6.27;;;10.50;34.90;;;;;;4937854;29;20169;-87
2023/05/27 04:32:37;;;;;;;17.37;6.40;;;10.30;36.70;;;;;;4936865;29;20169;-87
2023/05/27 04:35:08;;;;;;;16.17;6.03;;;10.50;42.80;;;;;;4936463;29;20216;-88
2023/05/27 04:37:36;;;;;;;18.23;6.47;;;10.30;41.40;;;;;;4936964;29;20607;-86
2023/05/27 04:40:03;;;;;;;15.37;6.43;;;10.30;42.70;;;;;;4937755;29;20228;-87
2023/05/27 04:42:29;;;;;;;16.83;6.03;;;10.30;40.50;;;;;;4937371;29;20180;-86
2023/05/27 04:44:55;;;;;;;12.87;6.00;;;10.30;40.30;;;;;;4940062;29;20646;-86
2023/05/27 04:47:21;;;;;;;13.43;6.03;;;10.40;39.90;;;;;;4943088;29;20173;-86
2023/05/27 04:49:47;;;;;;;19.97;7.13;;;10.40;40.30;;;;;;4945040;29;20176;-86
2023/05/27 04:52:13;;;;;;;16.60;6.23;;;10.40;38.40;;;;;;4943904;29;20180;-87
2023/05/27 04:54:39;;;;;;;18.23;6.27;;;10.50;36.10;;;;;;4927224;29;20220;-85
2023/05/27 04:57:06;;;;;;;16.40;6.57;;;10.40;35.90;;;;;;4942912;29;20192;-88
2023/05/27 05:02:22;;;;;;;16.97;6.10;;;10.40;38.90;;;;;;4943736;29;20712;-86
2023/05/27 05:04:49;;;;;;;16.30;6.23;;;10.30;35.50;;;;;;4942461;29;20211;-86
2023/05/27 05:07:16;;;;;;;18.33;6.27;;;10.30;39.10;;;;;;4942279;29;20727;-87
2023/05/27 05:09:42;;;;;;;20.93;6.60;;;10.20;41.10;;;;;;4943031;29;20183;-85
2023/05/27 05:12:07;;;;;;;18.57;6.97;;;10.20;42.60;;;;;;4950802;28;20176;-84
2023/05/27 05:14:33;;;;;;;18.47;6.63;;;10.40;44.60;;;;;;4952688;28;20209;-86
2023/05/27 05:16:59;;;;;;;18.43;6.93;;;10.40;42.00;;;;;;4942090;29;20188;-85
2023/05/27 05:19:25;;;;;;;23.07;8.20;;;10.50;34.40;;;;;;4946607;29;20677;-84
2023/05/27 05:21:50;;;;;;;15.97;6.83;;;10.60;31.40;;;;;;4945232;29;20196;-84
2023/05/27 05:24:19;;;;;;;16.20;6.13;;;10.60;30.20;;;;;;4947057;29;20175;-86
2023/05/27 05:26:45;;;;;;;16.60;7.33;;;10.70;26.70;;;;;;4949280;29;20201;-84
2023/05/27 05:29:17;;;;;;;14.50;6.37;;;10.70;27.00;;;;;;4945496;29;20168;-84
2023/05/27 05:31:44;;;;;;;18.37;7.00;;;10.80;25.90;;;;;;4945387;29;20165;-85
2023/05/27 05:34:11;;;;;;;17.33;6.60;;;10.90;19.90;;;;;;4943485;29;20295;-85
2023/05/27 05:36:37;;;;;;;20.00;7.07;;;10.90;18.50;;;;;;4944386;29;20251;-86
2023/05/27 05:39:04;;;;;;;18.30;7.67;;;11.00;18.20;;;;;;4944266;29;20565;-83
2023/05/27 05:41:32;;;;;;;17.17;6.60;;;11.10;17.20;;;;;;4943709;29;20677;-86
2023/05/27 05:43:58;;;;;;;20.03;6.93;;;11.10;10.60;;;;;;4943616;29;20510;-86
2023/05/27 05:46:24;;;;;;;15.90;7.43;;;11.10;11.50;;;;;;4941983;29;20687;-85
2023/05/27 05:48:52;;;;;;;17.23;7.00;;;11.30;9.40;;;;;;4944441;29;20264;-86
2023/05/27 05:51:19;;;;;;;19.53;7.53;;;11.30;6.00;;;;;;4948686;29;20181;-86
2023/05/27 05:53:46;;;;;;;16.20;6.77;;;11.30;5.30;;;;;;4946113;29;20181;-87
2023/05/27 05:56:11;;;;;;;16.63;7.07;;;11.40;4.60;;;;;;4942742;29;20188;-85
2023/05/27 05:58:37;;;;;;;18.40;7.43;;;11.30;5.10;;;;;;4940709;29;20176;-86
2023/05/27 06:01:04;;;;;;;14.60;7.00;;;11.40;2.00;;;;;;4939366;29;20184;-87
2023/05/27 06:03:30;;;;;;;14.60;8.03;;;11.40;1.30;;;;;;4939061;29;20181;-84
2023/05/27 06:05:58;;;;;;;17.70;7.70;;;11.50;1.00;;;;;;4940592;29;20180;-86
2023/05/27 06:08:24;;;;;;;17.03;7.60;;;11.50;1.00;;;;;;4938721;29;20176;-85
2023/05/27 06:10:50;;;;;;;16.23;7.87;;;11.50;1.00;;;;;;4938924;29;20279;-85
2023/05/27 06:13:16;;;;;;;13.53;7.40;;;11.50;1.00;;;;;;4940258;29;20204;-86
2023/05/27 06:15:43;;;;;;;19.33;7.10;;;11.50;1.30;;;;;;4937871;29;20216;-84
2023/05/27 06:18:08;;;;;;;18.27;7.33;;;11.70;1.00;;;;;;4939488;29;20240;-87
2023/05/27 06:20:34;;;;;;;19.73;8.03;;;11.90;1.00;;;;;;4939924;29;20208;-86
2023/05/27 06:23:01;;;;;;;17.27;7.37;;;12.00;1.00;;;;;;4948299;29;20153;-82
2023/05/27 06:25:27;;;;;;;18.47;6.87;;;12.10;1.00;;;;;;4952430;29;20217;-86
2023/05/27 06:27:52;;;;;;;17.67;7.50;;;12.10;1.00;;;;;;4940049;29;20173;-86
2023/05/27 06:30:20;;;;;;;15.27;7.87;;;12.00;1.00;;;;;;4939530;29;20244;-86
2023/05/27 06:32:45;;;;;;;19.53;7.23;;;12.10;1.00;;;;;;4938981;29;20197;-87
2023/05/27 06:35:11;;;;;;;14.27;6.63;;;12.10;1.00;;;;;;4940477;29;20221;-84
2023/05/27 06:37:37;;;;;;;20.17;7.43;;;12.20;1.00;;;;;;4943165;29;20180;-86
2023/05/27 06:40:03;;;;;;;20.50;7.27;;;12.20;1.00;;;;;;4948113;29;20174;-84
2023/05/27 06:42:28;;;;;;;16.37;7.67;;;12.20;1.00;;;;;;4960270;29;20154;-83
2023/05/27 06:44:54;;;;;;;16.73;7.80;;;12.40;1.00;;;;;;4941107;29;20765;-86
2023/05/27 06:47:22;;;;;;;15.97;6.80;;;12.40;1.00;;;;;;4948520;28;20161;-86
2023/05/27 06:49:47;;;;;;;17.70;7.37;;;12.50;1.00;;;;;;4960976;28;20205;-81
2023/05/27 06:52:13;;;;;;;16.20;7.60;;;12.50;1.00;;;;;;4960371;29;20192;-85
2023/05/27 06:54:38;;;;;;;16.40;7.27;;;12.60;1.00;;;;;;4955685;28;20220;-86
2023/05/27 06:57:07;;;;;;;17.90;7.57;;;12.60;1.00;;;;;;4940816;29;20616;-86
2023/05/27 06:59:36;;;;;;;20.50;8.20;;;12.70;1.00;;;;;;4941639;29;20165;-86
2023/05/27 07:02:02;;;;;;;20.30;7.33;;;12.90;1.00;;;;;;4947882;28;20296;-86
2023/05/27 07:04:28;;;;;;;20.83;7.00;;;12.90;1.00;;;;;;4948284;28;20157;-83
2023/05/27 07:06:53;;;;;;;16.83;7.60;;;12.80;1.00;;;;;;4959181;28;20253;-88
2023/05/27 07:09:19;;;;;;;17.50;7.40;;;12.90;1.00;;;;;;4952465;28;20157;-83
2023/05/27 07:11:45;;;;;;;16.80;7.73;;;13.00;1.00;;;;;;4960916;28;20189;-86
2023/05/27 07:14:10;;;;;;;14.80;8.27;;;13.00;1.00;;;;;;4959990;28;20213;-85
2023/05/27 07:16:36;;;;;;;22.17;8.13;;;13.10;1.00;;;;;;4957398;28;20260;-85
2023/05/27 07:19:05;;;;;;;17.63;7.80;;;13.20;1.00;;;;;;4923452;29;20187;-89
2023/05/27 07:21:33;;;;;;;16.50;7.40;;;13.20;1.00;;;;;;4939904;29;20209;-90
2023/05/27 07:24:03;;;;;;;18.10;8.37;;;13.20;1.00;;;;;;4942914;29;20269;-89
2023/05/27 07:26:31;;;;;;;20.43;8.13;;;13.30;1.00;;;;;;4939838;29;20285;-89
2023/05/27 07:29:00;;;;;;;15.97;8.13;;;13.30;1.00;;;;;;4947695;29;20191;-88
2023/05/27 07:31:27;;;;;;;16.23;7.70;;;13.50;1.00;;;;;;4948876;29;20170;-88
2023/05/27 07:33:53;;;;;;;17.83;8.00;;;13.60;1.00;;;;;;4946758;29;20179;-87
2023/05/27 07:36:19;;;;;;;19.33;8.20;;;13.50;1.00;;;;;;4943295;29;20667;-88
2023/05/27 07:38:45;;;;;;;15.23;8.07;;;13.50;1.00;;;;;;4947138;29;20177;-88
2023/05/27 07:41:12;;;;;;;19.13;7.97;;;13.60;1.00;;;;;;4951683;29;20176;-86
2023/05/27 07:43:38;;;;;;;14.90;7.73;;;13.80;1.00;;;;;;4947280;29;20260;-87
2023/05/27 07:46:04;;;;;;;17.47;7.63;;;13.80;1.00;;;;;;4949820;29;20214;-87
2023/05/27 07:48:29;;;;;;;16.67;7.93;;;13.90;1.00;;;;;;4983872;28;20192;-87
2023/05/27 07:50:57;;;;;;;15.60;7.67;;;13.90;1.00;;;;;;4947356;29;20230;-85
2023/05/27 07:53:23;;;;;;;20.67;8.60;;;14.10;1.00;;;;;;4942625;28;20205;-87
2023/05/27 07:55:49;;;;;;;19.30;7.70;;;14.10;1.00;;;;;;4943920;29;20233;-85
2023/05/27 07:58:15;;;;;;;14.20;7.33;;;14.20;1.00;;;;;;4943984;29;20183;-87
2023/05/27 08:00:40;;;;;;;16.53;6.80;;;14.20;1.00;;;;;;4948959;29;20233;-87
2023/05/27 08:03:06;;;;;;;16.77;7.63;;;14.10;1.00;;;;;;4939632;29;20649;-87
2023/05/27 08:05:32;;;;;;;19.90;7.50;;;14.20;1.00;;;;;;4941258;29;20198;-88
2023/05/27 08:08:00;;;;;;;15.70;7.60;;;14.20;1.00;;;;;;4944803;28;20201;-87
2023/05/27 08:10:26;;;;;;;18.90;7.33;;;14.30;1.00;;;;;;4939623;29;20204;-88
2023/05/27 08:12:52;;;;;;;19.10;8.50;;;14.40;1.00;;;;;;4942309;29;20181;-87
2023/05/27 08:15:18;;;;;;;17.10;8.00;;;14.40;1.00;;;;;;4948458;29;20227;-87
2023/05/27 08:17:44;;;;;;;14.37;7.77;;;14.60;1.00;;;;;;4944964;29;20645;-88
2023/05/27 08:20:11;;;;;;;16.07;7.63;;;14.50;1.00;;;;;;4943723;29;20192;-87
2023/05/27 08:22:38;;;;;;;21.30;8.53;;;14.60;1.00;;;;;;4964277;29;20203;-87
2023/05/27 08:25:05;;;;;;;18.37;7.80;;;14.60;1.00;;;;;;4957663;29;20165;-84
2023/05/27 08:27:46;;;;;;;16.63;7.33;;;14.70;1.00;;;;;;4938453;29;20248;-86
2023/05/27 08:30:13;;;;;;;19.90;7.87;;;14.80;1.00;;;;;;4945386;29;20188;-84
2023/05/27 08:32:41;;;;;;;16.90;7.77;;;14.80;1.00;;;;;;4941087;29;20591;-88
2023/05/27 08:35:06;;;;;;;14.53;6.73;;;15.00;1.00;;;;;;4949666;28;20203;-88
2023/05/27 08:37:34;;;;;;;17.43;8.57;;;15.20;1.00;;;;;;4943287;29;20184;-90
2023/05/27 08:40:01;;;;;;;17.50;7.53;;;15.20;1.00;;;;;;4951450;29;20251;-88
2023/05/27 08:42:26;;;;;;;14.60;7.17;;;15.20;1.00;;;;;;4954249;29;20176;-88
2023/05/27 08:44:52;;;;;;;17.90;7.43;;;15.20;1.00;;;;;;4945312;29;20204;-86
2023/05/27 08:47:19;;;;;;;14.57;7.03;;;15.30;1.00;;;;;;4965269;28;20169;-85
2023/05/27 08:49:47;;;;;;;15.93;7.23;;;15.40;1.00;;;;;;4963210;29;20180;-84
2023/05/27 08:52:19;;;;;;;17.43;6.90;;;15.50;1.00;;;;;;4963752;28;20192;-89
2023/05/27 08:55:07;;;;;;;14.40;6.97;;;15.50;1.00;;;;;;4964155;29;20227;-82
2023/05/27 08:57:36;;;;;;;16.50;6.80;;;15.50;1.00;;;;;;4955933;29;20236;-88
2023/05/27 09:00:13;;;;;;;19.00;7.80;;;15.60;1.00;;;;;;4951566;29;20193;-88
2023/05/27 09:02:41;;;;;;;16.97;7.43;;;15.80;1.00;;;;;;4951046;29;20180;-88
2023/05/27 09:05:16;;;;;;;18.03;7.30;;;15.90;1.00;;;;;;4947769;28;20216;-89
2023/05/27 09:07:42;;;;;;;15.60;7.10;;;16.20;1.00;;;;;;4941149;29;20177;-86
2023/05/27 09:10:09;;;;;;;16.57;7.10;;;16.30;1.00;;;;;;4952499;29;20212;-86
2023/05/27 09:12:35;;;;;;;16.17;6.37;;;16.30;1.00;;;;;;4968355;29;20198;-83
2023/05/27 09:15:04;;;;;;;17.87;6.20;;;16.30;1.00;;;;;;4954930;29;20216;-86
2023/05/27 09:17:34;;;;;;;15.40;7.00;;;16.50;1.00;;;;;;4944677;29;20217;-86
2023/05/27 09:20:00;;;;;;;15.33;6.20;;;16.60;1.00;;;;;;4935975;29;20649;-84
2023/05/27 09:22:29;;;;;;;15.20;6.80;;;16.70;1.00;;;;;;4949197;28;20180;-88
2023/05/27 09:24:56;;;;;;;17.70;6.17;;;16.70;1.00;;;;;;4946316;28;20193;-85
2023/05/27 09:27:30;;;;;;;14.73;6.50;;;16.70;1.00;;;;;;4948913;29;20189;-86
2023/05/27 09:29:58;;;;;;;20.73;7.20;;;16.90;1.00;;;;;;4941009;28;20193;-88
2023/05/27 09:32:27;;;;;;;19.60;7.30;;;17.10;1.00;;;;;;4944875;29;20194;-88
2023/05/27 09:34:56;;;;;;;15.27;6.67;;;17.20;1.00;;;;;;4953597;29;20204;-84
2023/05/27 09:37:32;;;;;;;15.90;6.73;;;17.20;1.00;;;;;;4927019;29;20181;-85
2023/05/27 09:40:04;;;;;;;16.90;6.93;;;17.20;99.90;;;;;;4957281;29;20687;-82
2023/05/27 09:42:50;;;;;;;19.33;7.23;;;17.30;1.00;;;;;;4964273;28;20214;-84
2023/05/27 09:45:17;;;;;;;13.67;6.73;;;17.50;1.00;;;;;;4963099;28;20199;-87
2023/05/27 09:47:51;;;;;;;15.40;6.40;;;17.70;1.00;;;;;;4959170;28;20169;-86
2023/05/27 09:50:18;;;;;;;15.07;6.73;;;17.80;99.90;;;;;;4966590;28;20681;-82
2023/05/27 09:52:47;;;;;;;19.77;6.80;;;17.80;99.90;;;;;;4967358;28;20219;-85
2023/05/27 09:55:14;;;;;;;19.40;6.87;;;17.80;99.90;;;;;;4959305;28;20218;-85
2023/05/27 09:57:40;;;;;;;14.50;6.60;;;17.90;99.90;;;;;;4963298;29;20237;-87
2023/05/27 10:00:11;;;;;;;13.37;6.47;;;17.90;99.90;;;;;;4953618;29;20176;-87
2023/05/27 10:02:38;;;;;;;18.77;7.53;;;17.60;99.90;;;;;;4959335;28;20164;-87
2023/05/27 10:05:07;;;;;;;13.90;5.97;;;17.80;99.90;;;;;;4974652;28;20201;-88
2023/05/27 10:07:40;;;;;;;12.67;5.57;;;17.90;99.90;;;;;;4967943;29;20180;-80
2023/05/27 10:10:11;;;;;;;14.50;5.77;;;18.10;99.90;;;;;;4962355;29;20273;-82
2023/05/27 10:12:39;;;;;;;18.13;6.83;;;18.00;99.90;;;;;;4956650;29;20195;-87
2023/05/27 10:15:10;;;;;;;13.63;5.87;;;18.00;99.90;;;;;;4941910;29;20223;-83
2023/05/27 10:17:46;;;;;;;16.33;6.30;;;18.20;99.90;;;;;;4935269;29;20188;-89
2023/05/27 10:20:31;;;;;;;16.93;6.60;;;18.30;99.90;;;;;;4964322;29;20186;-84
2023/05/27 10:23:10;;;;;;;14.10;5.97;;;18.50;99.90;;;;;;4955082;29;20267;-85
2023/05/27 10:25:46;;;;;;;14.63;6.20;;;18.40;99.90;;;;;;4951951;29;20212;-87
2023/05/27 10:28:23;;;;;;;15.00;6.23;;;18.40;99.90;;;;;;4954650;29;20180;-85
2023/05/27 10:31:16;;;;;;;14.53;6.30;;;18.60;99.90;;;;;;4963996;29;20160;-87
2023/05/27 10:33:45;;;;;;;14.57;6.17;;;18.70;99.90;;;;;;4965328;29;20237;-84
2023/05/27 10:36:31;;;;;;;17.93;6.60;;;18.70;99.90;;;;;;4961655;29;20240;-84
2023/05/27 10:39:00;;;;;;;14.60;6.37;;;19.00;99.90;;;;;;4959017;29;20160;-81
2023/05/27 10:41:27;;;;;;;15.57;6.00;;;19.00;99.90;;;;;;4967394;28;20251;-83
2023/05/27 10:43:59;;;;;;;14.50;6.23;;;19.20;99.90;;;;;;4951860;28;20187;-87
2023/05/27 10:46:41;;;;;;;17.07;5.30;;;19.30;99.90;;;;;;4959858;28;20308;-88
2023/05/27 10:49:27;;;;;;;14.33;6.43;;;19.10;99.90;;;;;;4958797;29;20159;-88
2023/05/27 10:51:53;;;;;;;14.93;5.50;;;19.20;99.90;;;;;;4950174;29;20178;-84
2023/05/27 10:54:25;;;;;;;12.57;5.43;;;19.20;99.90;;;;;;4943524;29;20382;-85
2023/05/27 10:56:52;;;;;;;14.20;5.93;;;19.10;99.90;;;;;;4935412;29;20210;-86
2023/05/27 10:59:22;;;;;;;14.23;5.53;;;19.20;99.90;;;;;;4938586;29;20685;-81
2023/05/27 11:01:53;;;;;;;13.97;6.37;;;19.30;99.90;;;;;;4948187;28;20499;-82
2023/05/27 11:04:21;;;;;;;12.63;5.60;;;19.30;99.90;;;;;;4940452;29;20647;-83
2023/05/27 11:07:00;;;;;;;12.53;5.43;;;19.40;99.90;;;;;;4937323;29;20173;-82
2023/05/27 11:09:26;;;;;;;16.03;5.80;;;19.60;99.90;;;;;;4939410;29;20180;-82
2023/05/27 11:11:56;;;;;;;21.17;7.17;;;19.50;1.00;;;;;;4937891;29;20262;-83
2023/05/27 11:14:23;;;;;;;13.13;5.37;;;19.70;1.00;;;;;;4937499;29;20186;-82
2023/05/27 11:16:51;;;;;;;15.07;5.67;;;19.70;7.00;;;;;;4940178;29;20180;-82
2023/05/27 11:19:23;;;;;;;12.83;5.67;;;19.80;1.00;;;;;;4941892;29;20182;-83
2023/05/27 11:21:50;;;;;;;14.07;5.77;;;19.90;1.00;;;;;;4942756;28;20177;-85
2023/05/27 11:24:17;;;;;;;12.83;4.93;;;19.90;1.00;;;;;;4942024;29;20750;-85
2023/05/27 11:26:47;;;;;;;15.67;5.60;;;20.00;99.90;;;;;;4950010;28;20768;-81
2023/05/27 11:29:16;;;;;;;14.10;5.77;;;19.90;99.90;;;;;;4948797;29;20187;-81
2023/05/27 11:31:47;;;;;;;14.13;5.27;;;20.10;1.00;;;;;;4945445;29;20180;-82
2023/05/27 11:34:14;;;;;;;14.67;5.00;;;20.30;99.90;;;;;;4937135;29;20183;-82
2023/05/27 11:36:40;;;;;;;12.60;5.13;;;20.30;99.90;;;;;;4941342;29;20518;-83
2023/05/27 11:39:19;;;;;;;11.70;5.10;;;20.20;99.90;;;;;;4929616;29;20171;-86
2023/05/27 11:41:52;;;;;;;12.77;4.77;;;20.50;99.90;;;;;;4933412;29;20181;-84
2023/05/27 11:44:20;;;;;;;16.83;5.93;;;20.50;99.90;;;;;;4940219;29;20192;-85
2023/05/27 11:46:47;;;;;;;24.47;5.97;;;20.40;99.90;;;;;;4941138;29;20221;-83
2023/05/27 11:49:18;;;;;;;12.33;5.27;;;20.60;99.90;;;;;;4950259;29;20165;-83
2023/05/27 11:51:46;;;;;;;11.30;4.93;;;20.60;8.70;;;;;;4943034;29;20161;-84
2023/05/27 11:54:25;;;;;;;16.63;5.20;;;20.60;1.00;;;;;;4942225;28;20246;-85
2023/05/27 11:56:53;;;;;;;9.77;4.83;;;20.70;1.00;;;;;;4942153;29;20199;-84
2023/05/27 11:59:20;;;;;;;10.27;4.47;;;20.90;1.00;;;;;;4923306;29;20655;-81
2023/05/27 12:01:45;;;;;;;10.83;4.60;;;20.70;1.00;;;;;;4940166;29;20559;-84
2023/05/27 12:04:11;;;;;;;10.27;5.33;;;20.70;1.00;;;;;;4941635;29;20181;-83
2023/05/27 12:06:38;;;;;;;14.13;5.17;;;20.60;1.00;;;;;;4935372;29;20191;-82
2023/05/27 12:09:05;;;;;;;11.87;4.50;;;20.80;1.00;;;;;;4936269;29;20176;-86
2023/05/27 12:11:31;;;;;;;12.77;4.70;;;21.20;99.90;;;;;;4945305;29;20563;-83
2023/05/27 12:13:58;;;;;;;11.27;4.63;;;21.00;1.00;;;;;;4964462;28;20624;-85
2023/05/27 12:16:24;;;;;;;11.70;5.00;;;20.80;99.90;;;;;;4961618;28;20203;-86
2023/05/27 12:18:51;;;;;;;14.10;4.90;;;20.90;99.90;;;;;;4944191;29;20211;-86
2023/05/27 12:21:17;;;;;;;13.67;5.10;;;20.80;1.00;;;;;;4945928;29;20176;-86
2023/05/27 12:23:44;;;;;;;15.60;5.13;;;21.10;1.00;;;;;;4934770;29;20185;-86
2023/05/27 12:26:11;;;;;;;18.07;4.87;;;21.20;99.90;;;;;;4942874;29;20176;-87
2023/05/27 12:28:37;;;;;;;12.03;4.90;;;21.20;1.00;;;;;;4935962;29;20263;-87
2023/05/27 12:31:03;;;;;;;12.07;4.57;;;21.00;1.00;;;;;;4944940;29;20285;-85
2023/05/27 12:33:31;;;;;;;11.90;4.67;;;21.10;1.00;;;;;;4924591;29;20228;-86
2023/05/27 12:35:58;;;;;;;13.87;4.80;;;21.20;1.00;;;;;;4946729;29;20232;-87
2023/05/27 12:38:23;;;;;;;13.83;5.30;;;21.30;99.90;;;;;;4946962;29;20198;-82
2023/05/27 12:40:50;;;;;;;13.03;4.70;;;21.30;1.00;;;;;;4943274;29;20568;-85
2023/05/27 12:43:18;;;;;;;10.83;4.43;;;21.30;1.00;;;;;;4937309;29;20188;-84
2023/05/27 12:45:45;;;;;;;10.27;4.57;;;21.30;99.90;;;;;;4945421;29;20199;-83
2023/05/27 12:48:13;;;;;;;12.90;4.60;;;21.50;99.90;;;;;;4941752;28;20163;-86
2023/05/27 12:50:39;;;;;;;13.97;4.67;;;21.60;1.00;;;;;;4948905;29;20191;-86
2023/05/27 12:53:04;;;;;;;11.57;5.20;;;21.70;99.90;;;;;;4931028;29;20195;-87